Share

Harris, IA

Dugout Creek (KIALAKEP2) Elev 1444 ft | 43.40 °N, 95.31 °W | Change Station

Current weather conditions updated 2 seconds ago

Clear
Clear
68.0 °F
Feels Like 68.0 °F
N
19.9
Wind Variable Wind from SSW
Gusts 26.5 mph
Sunrise 6:32 AM
Sunset 8:09 PM
Moon Waning Gibbous

Today is forecast to be Much Warmer than yesterday.

Pressure 30.01 in
Visibility 10.0 miles
Clouds Clear
Dew Point 47 °F
Humidity 47%
Rainfall 0.00 in
Snow Depth Not available.
UV 6 out of 16
Pollen 11.00 out of 12
Air Quality Not available.
Flu Activity Sporadic
METAR KOTG 191555Z AUTO 21023G30KT 10SM CLR 18/05 A3001 RMK AO1

More Conditions Fewer Conditions

Pressure 30.01 in
Visibility 10.0 miles
Clouds Clear
Dew Point 47 °F
Humidity 47%
Rainfall 0.00 in
Snow Depth Not available.
UV 6 out of 16
Pollen 11.00 out of 12
Air Quality Not available.
Flu Activity Sporadic
METAR KOTG 191555Z AUTO 21023G30KT 10SM CLR 18/05 A3001 RMK AO1

More Conditions Fewer Conditions

10-Day Weather Forecast

Almanac

Astronomy

Apr. 19, 2014 Rise Set
Actual Time 6:32 AM CDT 8:09 PM CDT
Civil Twilight 6:02 AM CDT 8:39 PM CDT
Nautical Twilight 5:26 AM CDT 9:16 PM CDT
Astronomical Twilight 4:47 AM CDT 9:55 PM CDT
Moon No Moon Rise 9:48 AM CDT
Length of Visible Light 14h 37m
Length of Day
13h 37m
Tomorrow will be 2m 46s longer.
Waning Gibbous, 79% of the Moon is Illuminated
Today
Waning Gibbous
Apr 22
Last Quarter
Apr 29
New
May 6
First Quarter
May 14
Full

Today's Extremes

State Highs State Lows

Community

  • A Glorious Morning
    A Glorious Morning
  • Tender Rays Of Hope
    Tender Rays Of Hope
  • Bleeding Hearts
    Bleeding Hearts
  • Sunset Silhouettes
    Sunset Silhouettes
  • FL sunset Perico Isle
    FL sunset Perico Isle

WunderPhotos

Upload Photos

1,702,776 photos uploaded!

WunderBlogs® & News

Nearby

Snow Depth

Station Depth Elevation
No new snow has been reported.

Coastal Water Temperatures

Place Temperature
No Stations Reporting

Earthquake Activity

City Distance Mag. Time & Date
No recent earthquake activity has been reported nearby.
Minimum magnitude displayed is 2.5.

Nearby Weather Stations

Station Location Temp. Dew Point Humidity Wind Precip. Elev Updated Type
Dugout Creek, Lake Park, IA 68.0 °F 47 °F 47% SSW  at  19.9 mph 0.00 in / hr 1444 ft 11:07 AM CDT Rapid Fire
West Sioux Estates 10, Milford, IA 66.6 °F 45 °F 46% South  at  20.0 mph 0.00 in / hr 1420 ft 11:05 AM CDT Normal
Mulberry Grove Family Farm, Milford, IA 68.9 °F 47 °F 45% South  at  24.0 mph 0.00 in / hr 1453 ft 11:07 AM CDT Rapid Fire
Milford Fire Station, Milford, IA 65.0 °F 46 °F 50% SSW  at  16.0 mph 0.00 in / hr 1443 ft 11:07 AM CDT Rapid Fire
Dickinson Co. Courthouse, Spirit Lake, IA 64.3 °F 43 °F 46% South  at  13.0 mph 0.00 in / hr 1470 ft 11:07 AM CDT Rapid Fire

Show More Stations Show Fewer Stations

What do you think?

We're not finished. Please let us know what you like, what you don't like, and what you are still missing.